sensor_id;sensor_type;location;lat;lon;timestamp;temperature;humidity
530;DHT22;251;48.704;9.210;2023-04-07T00:00:23;7.40;40.30
530;DHT22;251;48.704;9.210;2023-04-07T00:02:50;7.40;40.00
530;DHT22;251;48.704;9.210;2023-04-07T00:05:17;7.20;39.70
530;DHT22;251;48.704;9.210;2023-04-07T00:07:44;7.10;40.20
530;DHT22;251;48.704;9.210;2023-04-07T00:10:11;7.40;40.60
530;DHT22;251;48.704;9.210;2023-04-07T00:12:39;7.30;40.20
530;DHT22;251;48.704;9.210;2023-04-07T00:15:06;7.00;40.30
530;DHT22;251;48.704;9.210;2023-04-07T00:17:33;7.40;40.70
530;DHT22;251;48.704;9.210;2023-04-07T00:20:00;7.30;41.20
530;DHT22;251;48.704;9.210;2023-04-07T00:22:27;7.40;41.40
530;DHT22;251;48.704;9.210;2023-04-07T00:24:54;7.40;41.60
530;DHT22;251;48.704;9.210;2023-04-07T00:27:20;7.10;41.40
530;DHT22;251;48.704;9.210;2023-04-07T00:29:49;7.10;41.60
530;DHT22;251;48.704;9.210;2023-04-07T00:32:16;7.10;41.40
530;DHT22;251;48.704;9.210;2023-04-07T00:34:42;7.10;41.20
530;DHT22;251;48.704;9.210;2023-04-07T00:37:09;7.10;41.50
530;DHT22;251;48.704;9.210;2023-04-07T00:39:36;7.00;40.90
530;DHT22;251;48.704;9.210;2023-04-07T00:42:03;7.00;40.50
530;DHT22;251;48.704;9.210;2023-04-07T00:44:31;7.00;41.00
530;DHT22;251;48.704;9.210;2023-04-07T00:46:59;7.00;41.30
530;DHT22;251;48.704;9.210;2023-04-07T00:49:26;7.10;41.60
530;DHT22;251;48.704;9.210;2023-04-07T00:51:54;7.10;41.60
530;DHT22;251;48.704;9.210;2023-04-07T00:54:21;7.00;42.00
530;DHT22;251;48.704;9.210;2023-04-07T00:56:48;6.80;42.40
530;DHT22;251;48.704;9.210;2023-04-07T00:59:15;7.00;40.80
530;DHT22;251;48.704;9.210;2023-04-07T01:01:44;7.00;41.10
530;DHT22;251;48.704;9.210;2023-04-07T01:04:21;7.10;41.00
530;DHT22;251;48.704;9.210;2023-04-07T01:06:54;7.00;40.60
530;DHT22;251;48.704;9.210;2023-04-07T01:09:36;7.10;41.70
530;DHT22;251;48.704;9.210;2023-04-07T01:12:09;6.70;42.10
530;DHT22;251;48.704;9.210;2023-04-07T01:14:41;7.10;43.20
530;DHT22;251;48.704;9.210;2023-04-07T01:17:26;7.00;43.40
530;DHT22;251;48.704;9.210;2023-04-07T01:19:58;7.10;44.10
530;DHT22;251;48.704;9.210;2023-04-07T01:22:32;7.10;44.40
530;DHT22;251;48.704;9.210;2023-04-07T01:25:26;7.10;44.40
530;DHT22;251;48.704;9.210;2023-04-07T01:28:09;7.00;44.30
530;DHT22;251;48.704;9.210;2023-04-07T01:30:42;7.00;45.00
530;DHT22;251;48.704;9.210;2023-04-07T01:33:10;7.10;45.30
530;DHT22;251;48.704;9.210;2023-04-07T01:35:38;7.00;45.60
530;DHT22;251;48.704;9.210;2023-04-07T01:38:08;7.10;44.80
530;DHT22;251;48.704;9.210;2023-04-07T01:40:37;7.00;45.10
530;DHT22;251;48.704;9.210;2023-04-07T01:43:05;7.10;43.90
530;DHT22;251;48.704;9.210;2023-04-07T01:45:34;7.10;43.90
530;DHT22;251;48.704;9.210;2023-04-07T01:48:04;7.10;44.00
530;DHT22;251;48.704;9.210;2023-04-07T01:50:32;7.00;43.50
530;DHT22;251;48.704;9.210;2023-04-07T01:53:00;7.10;43.90
530;DHT22;251;48.704;9.210;2023-04-07T01:55:27;7.00;44.00
530;DHT22;251;48.704;9.210;2023-04-07T01:58:04;7.10;44.30
530;DHT22;251;48.704;9.210;2023-04-07T02:00:32;6.90;43.90
530;DHT22;251;48.704;9.210;2023-04-07T02:03:08;7.00;43.70
530;DHT22;251;48.704;9.210;2023-04-07T02:05:37;7.10;43.70
530;DHT22;251;48.704;9.210;2023-04-07T02:08:07;6.70;43.20
530;DHT22;251;48.704;9.210;2023-04-07T02:10:38;7.00;43.90
530;DHT22;251;48.704;9.210;2023-04-07T02:13:07;7.00;44.40
530;DHT22;251;48.704;9.210;2023-04-07T02:15:36;7.10;44.20
530;DHT22;251;48.704;9.210;2023-04-07T02:18:04;6.60;44.30
530;DHT22;251;48.704;9.210;2023-04-07T02:20:34;7.10;45.20
530;DHT22;251;48.704;9.210;2023-04-07T02:23:02;7.00;45.20
530;DHT22;251;48.704;9.210;2023-04-07T02:25:30;7.00;45.20
530;DHT22;251;48.704;9.210;2023-04-07T02:27:58;7.20;45.60
530;DHT22;251;48.704;9.210;2023-04-07T02:30:25;6.90;45.50
530;DHT22;251;48.704;9.210;2023-04-07T02:32:53;7.00;45.80
530;DHT22;251;48.704;9.210;2023-04-07T02:35:20;7.10;46.00
530;DHT22;251;48.704;9.210;2023-04-07T02:37:48;7.10;46.10
530;DHT22;251;48.704;9.210;2023-04-07T02:40:15;6.80;45.50
530;DHT22;251;48.704;9.210;2023-04-07T02:42:43;7.10;46.30
530;DHT22;251;48.704;9.210;2023-04-07T02:45:10;7.20;46.30
530;DHT22;251;48.704;9.210;2023-04-07T02:47:38;6.80;45.70
530;DHT22;251;48.704;9.210;2023-04-07T02:50:05;7.00;46.30
530;DHT22;251;48.704;9.210;2023-04-07T02:52:34;7.00;46.60
530;DHT22;251;48.704;9.210;2023-04-07T02:55:06;6.80;46.70
530;DHT22;251;48.704;9.210;2023-04-07T02:57:34;7.10;47.30
530;DHT22;251;48.704;9.210;2023-04-07T03:00:05;7.00;47.00
530;DHT22;251;48.704;9.210;2023-04-07T03:02:50;6.80;47.10
530;DHT22;251;48.704;9.210;2023-04-07T03:05:17;7.10;47.80
530;DHT22;251;48.704;9.210;2023-04-07T03:07:44;7.00;47.30
530;DHT22;251;48.704;9.210;2023-04-07T03:10:12;7.00;47.50
530;DHT22;251;48.704;9.210;2023-04-07T03:12:39;7.10;47.90
530;DHT22;251;48.704;9.210;2023-04-07T03:15:07;7.10;48.30
530;DHT22;251;48.704;9.210;2023-04-07T03:17:35;7.00;48.00
530;DHT22;251;48.704;9.210;2023-04-07T03:20:02;6.80;47.80
530;DHT22;251;48.704;9.210;2023-04-07T03:22:30;7.00;48.30
530;DHT22;251;48.704;9.210;2023-04-07T03:24:57;7.00;47.90
530;DHT22;251;48.704;9.210;2023-04-07T03:27:27;7.10;47.80
530;DHT22;251;48.704;9.210;2023-04-07T03:29:53;7.10;47.90
530;DHT22;251;48.704;9.210;2023-04-07T03:32:21;7.10;47.30
530;DHT22;251;48.704;9.210;2023-04-07T03:34:48;7.00;47.20
530;DHT22;251;48.704;9.210;2023-04-07T03:37:15;6.80;46.70
530;DHT22;251;48.704;9.210;2023-04-07T03:39:43;7.10;46.90
530;DHT22;251;48.704;9.210;2023-04-07T03:42:34;7.10;47.00
530;DHT22;251;48.704;9.210;2023-04-07T03:45:05;7.10;47.20
530;DHT22;251;48.704;9.210;2023-04-07T03:47:33;6.60;46.40
530;DHT22;251;48.704;9.210;2023-04-07T03:50:02;6.90;47.30
530;DHT22;251;48.704;9.210;2023-04-07T03:52:33;7.10;47.70
530;DHT22;251;48.704;9.210;2023-04-07T03:55:09;7.10;47.90
530;DHT22;251;48.704;9.210;2023-04-07T03:57:37;7.10;47.80
530;DHT22;251;48.704;9.210;2023-04-07T04:00:05;7.00;48.20
530;DHT22;251;48.704;9.210;2023-04-07T04:02:42;7.10;47.50
530;DHT22;251;48.704;9.210;2023-04-07T04:05:11;7.10;47.80
530;DHT22;251;48.704;9.210;2023-04-07T04:07:38;7.00;47.90
530;DHT22;251;48.704;9.210;2023-04-07T04:10:06;7.00;48.00
530;DHT22;251;48.704;9.210;2023-04-07T04:12:39;7.10;48.40
530;DHT22;251;48.704;9.210;2023-04-07T04:15:09;7.00;48.50
530;DHT22;251;48.704;9.210;2023-04-07T04:17:37;6.80;48.70
530;DHT22;251;48.704;9.210;2023-04-07T04:20:05;7.00;49.20
530;DHT22;251;48.704;9.210;2023-04-07T04:22:45;6.60;49.00
530;DHT22;251;48.704;9.210;2023-04-07T04:25:12;7.10;49.10
530;DHT22;251;48.704;9.210;2023-04-07T04:27:44;7.00;49.00
530;DHT22;251;48.704;9.210;2023-04-07T04:30:18;6.90;49.30
530;DHT22;251;48.704;9.210;2023-04-07T04:32:51;7.00;48.90
530;DHT22;251;48.704;9.210;2023-04-07T04:35:23;7.10;49.20
530;DHT22;251;48.704;9.210;2023-04-07T04:38:04;6.80;48.60
530;DHT22;251;48.704;9.210;2023-04-07T04:40:32;7.00;48.90
530;DHT22;251;48.704;9.210;2023-04-07T04:43:01;6.60;48.50
530;DHT22;251;48.704;9.210;2023-04-07T04:45:33;7.00;48.90
530;DHT22;251;48.704;9.210;2023-04-07T04:48:01;7.00;48.60
530;DHT22;251;48.704;9.210;2023-04-07T04:50:28;6.90;48.60
530;DHT22;251;48.704;9.210;2023-04-07T04:52:55;7.00;48.30
530;DHT22;251;48.704;9.210;2023-04-07T04:55:22;7.00;48.60
530;DHT22;251;48.704;9.210;2023-04-07T04:57:51;6.90;48.60
530;DHT22;251;48.704;9.210;2023-04-07T05:00:26;6.80;48.50
530;DHT22;251;48.704;9.210;2023-04-07T05:02:59;7.00;48.10
530;DHT22;251;48.704;9.210;2023-04-07T05:05:30;6.50;47.60
530;DHT22;251;48.704;9.210;2023-04-07T05:07:57;6.80;48.50
530;DHT22;251;48.704;9.210;2023-04-07T05:10:30;6.80;49.20
530;DHT22;251;48.704;9.210;2023-04-07T05:12:57;6.80;49.60
530;DHT22;251;48.704;9.210;2023-04-07T05:15:26;6.80;49.60
530;DHT22;251;48.704;9.210;2023-04-07T05:17:53;6.80;49.70
530;DHT22;251;48.704;9.210;2023-04-07T05:20:24;6.70;49.20
530;DHT22;251;48.704;9.210;2023-04-07T05:22:51;6.50;48.50
530;DHT22;251;48.704;9.210;2023-04-07T05:25:22;6.70;49.40
530;DHT22;251;48.704;9.210;2023-04-07T05:27:53;6.60;49.00
530;DHT22;251;48.704;9.210;2023-04-07T05:30:20;6.60;48.50
530;DHT22;251;48.704;9.210;2023-04-07T05:32:48;6.70;48.80
530;DHT22;251;48.704;9.210;2023-04-07T05:35:23;6.30;48.80
530;DHT22;251;48.704;9.210;2023-04-07T05:37:54;6.60;49.00
530;DHT22;251;48.704;9.210;2023-04-07T05:40:21;6.70;49.10
530;DHT22;251;48.704;9.210;2023-04-07T05:42:49;6.50;50.10
530;DHT22;251;48.704;9.210;2023-04-07T05:45:16;6.70;50.70
530;DHT22;251;48.704;9.210;2023-04-07T05:47:47;6.70;51.20
530;DHT22;251;48.704;9.210;2023-04-07T05:50:18;6.80;51.80
530;DHT22;251;48.704;9.210;2023-04-07T05:52:47;6.50;52.00
530;DHT22;251;48.704;9.210;2023-04-07T05:55:20;6.60;52.40
530;DHT22;251;48.704;9.210;2023-04-07T05:57:48;6.50;52.60
530;DHT22;251;48.704;9.210;2023-04-07T06:00:18;6.60;52.40
530;DHT22;251;48.704;9.210;2023-04-07T06:02:55;6.80;52.40
530;DHT22;251;48.704;9.210;2023-04-07T06:05:22;6.60;51.30
530;DHT22;251;48.704;9.210;2023-04-07T06:07:52;6.80;51.50
530;DHT22;251;48.704;9.210;2023-04-07T06:10:20;6.70;51.80
530;DHT22;251;48.704;9.210;2023-04-07T06:12:47;6.80;52.10
530;DHT22;251;48.704;9.210;2023-04-07T06:15:13;6.50;53.20
530;DHT22;251;48.704;9.210;2023-04-07T06:17:40;7.00;53.50
530;DHT22;251;48.704;9.210;2023-04-07T06:20:10;7.00;53.40
530;DHT22;251;48.704;9.210;2023-04-07T06:22:37;7.10;53.60
530;DHT22;251;48.704;9.210;2023-04-07T06:25:07;7.10;53.60
530;DHT22;251;48.704;9.210;2023-04-07T06:27:34;7.10;53.60
530;DHT22;251;48.704;9.210;2023-04-07T06:30:01;7.10;53.40
530;DHT22;251;48.704;9.210;2023-04-07T06:32:28;6.60;53.20
530;DHT22;251;48.704;9.210;2023-04-07T06:34:56;6.90;54.20
530;DHT22;251;48.704;9.210;2023-04-07T06:37:24;7.10;53.80
530;DHT22;251;48.704;9.210;2023-04-07T06:39:51;7.10;54.40
530;DHT22;251;48.704;9.210;2023-04-07T06:42:17;6.80;55.30
530;DHT22;251;48.704;9.210;2023-04-07T06:44:56;7.20;56.00
530;DHT22;251;48.704;9.210;2023-04-07T06:47:22;7.10;56.10
530;DHT22;251;48.704;9.210;2023-04-07T06:49:49;6.90;56.50
530;DHT22;251;48.704;9.210;2023-04-07T06:52:16;6.90;55.90
530;DHT22;251;48.704;9.210;2023-04-07T06:54:44;7.20;56.40
530;DHT22;251;48.704;9.210;2023-04-07T06:57:11;7.00;56.00
530;DHT22;251;48.704;9.210;2023-04-07T06:59:38;7.20;56.00
530;DHT22;251;48.704;9.210;2023-04-07T07:02:05;7.40;55.70
530;DHT22;251;48.704;9.210;2023-04-07T07:04:33;7.30;50.60
530;DHT22;251;48.704;9.210;2023-04-07T07:07:00;7.30;50.30
530;DHT22;251;48.704;9.210;2023-04-07T07:09:27;7.40;48.70
530;DHT22;251;48.704;9.210;2023-04-07T07:11:55;7.40;49.20
530;DHT22;251;48.704;9.210;2023-04-07T07:14:23;7.40;49.00
530;DHT22;251;48.704;9.210;2023-04-07T07:16:49;7.40;47.60
530;DHT22;251;48.704;9.210;2023-04-07T07:19:16;7.50;49.20
530;DHT22;251;48.704;9.210;2023-04-07T07:21:43;7.40;49.80
530;DHT22;251;48.704;9.210;2023-04-07T07:24:10;7.50;47.70
530;DHT22;251;48.704;9.210;2023-04-07T07:26:37;7.40;49.00
530;DHT22;251;48.704;9.210;2023-04-07T07:29:05;7.40;47.80
530;DHT22;251;48.704;9.210;2023-04-07T07:31:32;7.40;45.00
530;DHT22;251;48.704;9.210;2023-04-07T07:33:58;7.60;46.50
530;DHT22;251;48.704;9.210;2023-04-07T07:36:25;7.70;46.60
530;DHT22;251;48.704;9.210;2023-04-07T07:38:52;7.70;43.60
530;DHT22;251;48.704;9.210;2023-04-07T07:41:18;7.60;43.90
530;DHT22;251;48.704;9.210;2023-04-07T07:43:45;7.40;42.30
530;DHT22;251;48.704;9.210;2023-04-07T07:46:13;7.70;39.80
530;DHT22;251;48.704;9.210;2023-04-07T07:48:40;7.70;41.50
530;DHT22;251;48.704;9.210;2023-04-07T07:51:07;7.80;40.80
530;DHT22;251;48.704;9.210;2023-04-07T07:53:33;7.80;39.90
530;DHT22;251;48.704;9.210;2023-04-07T07:56:00;7.80;41.70
530;DHT22;251;48.704;9.210;2023-04-07T07:58:27;8.00;42.30
530;DHT22;251;48.704;9.210;2023-04-07T08:00:54;8.10;42.60
530;DHT22;251;48.704;9.210;2023-04-07T08:03:22;7.90;40.20
530;DHT22;251;48.704;9.210;2023-04-07T08:05:49;8.00;40.10
530;DHT22;251;48.704;9.210;2023-04-07T08:08:16;8.10;39.10
530;DHT22;251;48.704;9.210;2023-04-07T08:10:42;8.00;38.70
530;DHT22;251;48.704;9.210;2023-04-07T08:13:09;8.10;40.20
530;DHT22;251;48.704;9.210;2023-04-07T08:15:36;8.40;35.90
530;DHT22;251;48.704;9.210;2023-04-07T08:18:03;8.50;34.90
530;DHT22;251;48.704;9.210;2023-04-07T08:20:32;8.40;31.50
530;DHT22;251;48.704;9.210;2023-04-07T08:22:59;8.70;34.40
530;DHT22;251;48.704;9.210;2023-04-07T08:25:27;8.50;35.50
530;DHT22;251;48.704;9.210;2023-04-07T08:27:54;8.50;29.80
530;DHT22;251;48.704;9.210;2023-04-07T08:30:21;8.50;29.80
530;DHT22;251;48.704;9.210;2023-04-07T08:32:48;9.00;31.20
530;DHT22;251;48.704;9.210;2023-04-07T08:35:15;8.80;32.20
530;DHT22;251;48.704;9.210;2023-04-07T08:37:43;8.80;27.30
530;DHT22;251;48.704;9.210;2023-04-07T08:40:10;9.00;27.10
530;DHT22;251;48.704;9.210;2023-04-07T08:42:40;8.90;28.10
530;DHT22;251;48.704;9.210;2023-04-07T08:45:09;8.90;27.80
530;DHT22;251;48.704;9.210;2023-04-07T08:47:36;8.80;28.10
530;DHT22;251;48.704;9.210;2023-04-07T08:50:05;9.40;30.00
530;DHT22;251;48.704;9.210;2023-04-07T08:52:34;9.40;26.90
530;DHT22;251;48.704;9.210;2023-04-07T08:55:08;9.40;26.00
530;DHT22;251;48.704;9.210;2023-04-07T08:57:36;9.40;27.30
530;DHT22;251;48.704;9.210;2023-04-07T09:00:03;9.80;26.70
530;DHT22;251;48.704;9.210;2023-04-07T09:02:32;9.90;25.30
530;DHT22;251;48.704;9.210;2023-04-07T09:05:00;10.00;25.40
530;DHT22;251;48.704;9.210;2023-04-07T09:07:26;9.90;24.90
530;DHT22;251;48.704;9.210;2023-04-07T09:09:54;10.20;24.90
530;DHT22;251;48.704;9.210;2023-04-07T09:12:22;10.20;23.80
530;DHT22;251;48.704;9.210;2023-04-07T09:14:49;10.30;23.10
530;DHT22;251;48.704;9.210;2023-04-07T09:17:16;10.10;22.00
530;DHT22;251;48.704;9.210;2023-04-07T09:19:43;10.40;21.40
530;DHT22;251;48.704;9.210;2023-04-07T09:22:10;10.10;21.60
530;DHT22;251;48.704;9.210;2023-04-07T09:24:39;10.30;20.30
530;DHT22;251;48.704;9.210;2023-04-07T09:27:11;10.20;20.00
530;DHT22;251;48.704;9.210;2023-04-07T09:29:40;10.00;21.30
530;DHT22;251;48.704;9.210;2023-04-07T09:32:07;10.40;22.00
530;DHT22;251;48.704;9.210;2023-04-07T09:34:36;10.40;20.00
530;DHT22;251;48.704;9.210;2023-04-07T09:37:04;10.60;21.60
530;DHT22;251;48.704;9.210;2023-04-07T09:39:32;10.50;19.00
530;DHT22;251;48.704;9.210;2023-04-07T09:42:05;10.70;20.30
530;DHT22;251;48.704;9.210;2023-04-07T09:44:40;10.80;18.60
530;DHT22;251;48.704;9.210;2023-04-07T09:47:07;10.60;18.60
530;DHT22;251;48.704;9.210;2023-04-07T09:49:47;10.60;19.60
530;DHT22;251;48.704;9.210;2023-04-07T09:52:14;10.90;17.90
530;DHT22;251;48.704;9.210;2023-04-07T09:54:42;10.70;18.10
530;DHT22;251;48.704;9.210;2023-04-07T09:57:10;10.60;18.00
530;DHT22;251;48.704;9.210;2023-04-07T09:59:41;10.90;17.90
530;DHT22;251;48.704;9.210;2023-04-07T10:02:09;10.90;17.40
530;DHT22;251;48.704;9.210;2023-04-07T10:04:37;10.80;18.10
530;DHT22;251;48.704;9.210;2023-04-07T10:07:04;10.90;18.80
530;DHT22;251;48.704;9.210;2023-04-07T10:09:31;11.10;18.10
530;DHT22;251;48.704;9.210;2023-04-07T10:11:58;11.20;18.70
530;DHT22;251;48.704;9.210;2023-04-07T10:14:26;11.00;18.90
530;DHT22;251;48.704;9.210;2023-04-07T10:16:55;10.90;18.40
530;DHT22;251;48.704;9.210;2023-04-07T10:19:23;11.20;18.70
530;DHT22;251;48.704;9.210;2023-04-07T10:21:53;11.30;18.50
530;DHT22;251;48.704;9.210;2023-04-07T10:24:43;10.90;18.50
530;DHT22;251;48.704;9.210;2023-04-07T10:27:15;10.90;18.50
530;DHT22;251;48.704;9.210;2023-04-07T10:29:46;11.30;19.10
530;DHT22;251;48.704;9.210;2023-04-07T10:32:15;11.50;18.00
530;DHT22;251;48.704;9.210;2023-04-07T10:34:55;11.30;18.10
530;DHT22;251;48.704;9.210;2023-04-07T10:37:23;11.60;17.60
530;DHT22;251;48.704;9.210;2023-04-07T10:39:52;11.60;17.70
530;DHT22;251;48.704;9.210;2023-04-07T10:42:44;11.60;17.30
530;DHT22;251;48.704;9.210;2023-04-07T10:45:12;11.50;18.00
530;DHT22;251;48.704;9.210;2023-04-07T10:50:32;11.40;17.50
530;DHT22;251;48.704;9.210;2023-04-07T10:53:05;10.90;16.40
530;DHT22;251;48.704;9.210;2023-04-07T10:55:34;10.80;17.40
530;DHT22;251;48.704;9.210;2023-04-07T10:58:22;10.80;17.50
530;DHT22;251;48.704;9.210;2023-04-07T11:01:17;10.80;18.30
530;DHT22;251;48.704;9.210;2023-04-07T11:03:53;10.80;17.70
530;DHT22;251;48.704;9.210;2023-04-07T11:06:22;10.50;18.50
530;DHT22;251;48.704;9.210;2023-04-07T11:08:49;10.80;19.50
530;DHT22;251;48.704;9.210;2023-04-07T11:11:37;10.60;19.40
530;DHT22;251;48.704;9.210;2023-04-07T11:14:04;10.70;20.80
530;DHT22;251;48.704;9.210;2023-04-07T11:16:41;10.40;20.30
530;DHT22;251;48.704;9.210;2023-04-07T11:19:10;10.30;20.80
530;DHT22;251;48.704;9.210;2023-04-07T11:21:38;10.20;22.40
530;DHT22;251;48.704;9.210;2023-04-07T11:24:05;10.20;22.30
530;DHT22;251;48.704;9.210;2023-04-07T11:26:36;10.10;21.60
530;DHT22;251;48.704;9.210;2023-04-07T11:29:04;10.20;22.80
530;DHT22;251;48.704;9.210;2023-04-07T11:31:31;10.30;23.80
530;DHT22;251;48.704;9.210;2023-04-07T11:33:58;10.20;22.50
530;DHT22;251;48.704;9.210;2023-04-07T11:36:27;10.00;23.60
530;DHT22;251;48.704;9.210;2023-04-07T11:38:57;10.30;23.70
530;DHT22;251;48.704;9.210;2023-04-07T11:41:28;10.10;23.30
530;DHT22;251;48.704;9.210;2023-04-07T11:44:08;10.20;22.40
530;DHT22;251;48.704;9.210;2023-04-07T11:46:35;10.20;22.00
530;DHT22;251;48.704;9.210;2023-04-07T11:49:10;10.20;21.60
530;DHT22;251;48.704;9.210;2023-04-07T11:51:37;10.20;20.60
530;DHT22;251;48.704;9.210;2023-04-07T11:54:06;10.10;20.20
530;DHT22;251;48.704;9.210;2023-04-07T11:56:44;10.00;19.90
530;DHT22;251;48.704;9.210;2023-04-07T11:59:18;10.10;21.00
530;DHT22;251;48.704;9.210;2023-04-07T12:01:47;10.20;20.20
530;DHT22;251;48.704;9.210;2023-04-07T12:04:14;10.20;19.30
530;DHT22;251;48.704;9.210;2023-04-07T12:06:42;10.20;22.80
530;DHT22;251;48.704;9.210;2023-04-07T12:09:26;10.20;24.10
530;DHT22;251;48.704;9.210;2023-04-07T12:11:53;10.10;27.10
530;DHT22;251;48.704;9.210;2023-04-07T12:14:21;10.20;27.40
530;DHT22;251;48.704;9.210;2023-04-07T12:16:48;9.90;28.60
530;DHT22;251;48.704;9.210;2023-04-07T12:19:15;10.10;28.30
530;DHT22;251;48.704;9.210;2023-04-07T12:21:42;10.20;29.10
530;DHT22;251;48.704;9.210;2023-04-07T12:24:10;9.90;32.00
530;DHT22;251;48.704;9.210;2023-04-07T12:26:37;10.00;29.60
530;DHT22;251;48.704;9.210;2023-04-07T12:29:04;9.90;31.00
530;DHT22;251;48.704;9.210;2023-04-07T12:31:31;10.00;29.20
530;DHT22;251;48.704;9.210;2023-04-07T12:33:58;9.80;30.20
530;DHT22;251;48.704;9.210;2023-04-07T12:36:25;9.90;30.90
530;DHT22;251;48.704;9.210;2023-04-07T12:38:52;9.80;31.50
530;DHT22;251;48.704;9.210;2023-04-07T12:41:21;9.80;33.90
530;DHT22;251;48.704;9.210;2023-04-07T12:43:48;9.60;34.60
530;DHT22;251;48.704;9.210;2023-04-07T12:46:15;9.90;36.60
530;DHT22;251;48.704;9.210;2023-04-07T12:48:43;9.70;37.20
530;DHT22;251;48.704;9.210;2023-04-07T12:51:10;9.90;37.80
530;DHT22;251;48.704;9.210;2023-04-07T12:53:37;9.90;37.80
530;DHT22;251;48.704;9.210;2023-04-07T12:56:04;9.80;38.90
530;DHT22;251;48.704;9.210;2023-04-07T12:58:32;9.80;37.90
530;DHT22;251;48.704;9.210;2023-04-07T13:00:59;9.80;37.90
530;DHT22;251;48.704;9.210;2023-04-07T13:03:26;9.80;38.80
530;DHT22;251;48.704;9.210;2023-04-07T13:05:52;9.50;39.10
530;DHT22;251;48.704;9.210;2023-04-07T13:08:20;9.80;38.80
530;DHT22;251;48.704;9.210;2023-04-07T13:10:47;9.50;38.20
530;DHT22;251;48.704;9.210;2023-04-07T13:13:14;9.50;37.90
530;DHT22;251;48.704;9.210;2023-04-07T13:15:42;9.80;40.70
530;DHT22;251;48.704;9.210;2023-04-07T13:18:09;9.80;40.60
530;DHT22;251;48.704;9.210;2023-04-07T13:20:35;9.60;41.90
530;DHT22;251;48.704;9.210;2023-04-07T13:23:02;9.80;38.30
530;DHT22;251;48.704;9.210;2023-04-07T13:25:29;9.30;38.20
530;DHT22;251;48.704;9.210;2023-04-07T13:27:56;9.70;38.90
530;DHT22;251;48.704;9.210;2023-04-07T13:30:24;9.80;40.70
530;DHT22;251;48.704;9.210;2023-04-07T13:32:53;9.30;38.90
530;DHT22;251;48.704;9.210;2023-04-07T13:35:19;9.40;40.30
530;DHT22;251;48.704;9.210;2023-04-07T13:37:47;9.20;40.70
530;DHT22;251;48.704;9.210;2023-04-07T13:40:13;9.30;37.80
530;DHT22;251;48.704;9.210;2023-04-07T13:42:40;9.40;35.80
530;DHT22;251;48.704;9.210;2023-04-07T13:45:08;9.40;36.40
530;DHT22;251;48.704;9.210;2023-04-07T13:47:35;9.30;38.50
530;DHT22;251;48.704;9.210;2023-04-07T13:50:04;9.20;39.20
530;DHT22;251;48.704;9.210;2023-04-07T13:52:31;9.50;40.50
530;DHT22;251;48.704;9.210;2023-04-07T13:54:59;9.80;40.70
530;DHT22;251;48.704;9.210;2023-04-07T13:57:27;9.20;35.30
530;DHT22;251;48.704;9.210;2023-04-07T13:59:54;9.40;37.90
530;DHT22;251;48.704;9.210;2023-04-07T14:02:21;9.50;36.80
530;DHT22;251;48.704;9.210;2023-04-07T14:04:49;9.20;37.80
530;DHT22;251;48.704;9.210;2023-04-07T14:07:17;9.70;40.40
530;DHT22;251;48.704;9.210;2023-04-07T14:09:44;9.70;38.80
530;DHT22;251;48.704;9.210;2023-04-07T14:12:12;9.80;36.10
530;DHT22;251;48.704;9.210;2023-04-07T14:14:40;9.40;35.60
530;DHT22;251;48.704;9.210;2023-04-07T14:17:06;9.70;36.30
530;DHT22;251;48.704;9.210;2023-04-07T14:19:33;9.70;34.80
530;DHT22;251;48.704;9.210;2023-04-07T14:22:00;9.70;36.10
530;DHT22;251;48.704;9.210;2023-04-07T14:24:28;9.70;38.40
530;DHT22;251;48.704;9.210;2023-04-07T14:26:55;9.80;38.50
530;DHT22;251;48.704;9.210;2023-04-07T14:29:22;9.60;37.70
530;DHT22;251;48.704;9.210;2023-04-07T14:31:49;9.70;36.00
530;DHT22;251;48.704;9.210;2023-04-07T14:34:16;9.90;35.20
530;DHT22;251;48.704;9.210;2023-04-07T14:36:52;10.10;34.40
530;DHT22;251;48.704;9.210;2023-04-07T14:39:20;10.30;33.50
530;DHT22;251;48.704;9.210;2023-04-07T14:41:48;9.90;34.50
530;DHT22;251;48.704;9.210;2023-04-07T14:44:15;10.20;29.70
530;DHT22;251;48.704;9.210;2023-04-07T14:46:42;10.20;28.60
530;DHT22;251;48.704;9.210;2023-04-07T14:49:09;10.00;28.40
530;DHT22;251;48.704;9.210;2023-04-07T14:51:36;10.20;28.10
530;DHT22;251;48.704;9.210;2023-04-07T14:54:03;10.30;27.40
530;DHT22;251;48.704;9.210;2023-04-07T14:56:29;10.20;28.00
530;DHT22;251;48.704;9.210;2023-04-07T14:58:58;10.10;28.30
530;DHT22;251;48.704;9.210;2023-04-07T15:01:24;10.30;28.20
530;DHT22;251;48.704;9.210;2023-04-07T15:03:51;10.10;27.00
530;DHT22;251;48.704;9.210;2023-04-07T15:06:18;10.20;28.30
530;DHT22;251;48.704;9.210;2023-04-07T15:08:45;10.30;27.00
530;DHT22;251;48.704;9.210;2023-04-07T15:11:12;10.20;25.80
530;DHT22;251;48.704;9.210;2023-04-07T15:13:39;10.50;26.00
530;DHT22;251;48.704;9.210;2023-04-07T15:16:09;10.30;26.50
530;DHT22;251;48.704;9.210;2023-04-07T15:18:38;10.30;26.70
530;DHT22;251;48.704;9.210;2023-04-07T15:21:05;10.50;28.30
530;DHT22;251;48.704;9.210;2023-04-07T15:23:32;10.50;27.10
530;DHT22;251;48.704;9.210;2023-04-07T15:25:59;10.60;27.60
530;DHT22;251;48.704;9.210;2023-04-07T15:28:25;10.50;27.40
530;DHT22;251;48.704;9.210;2023-04-07T15:30:52;10.50;26.30
530;DHT22;251;48.704;9.210;2023-04-07T15:33:20;10.60;27.40
530;DHT22;251;48.704;9.210;2023-04-07T15:35:47;10.50;26.90
530;DHT22;251;48.704;9.210;2023-04-07T15:38:14;10.60;27.40
530;DHT22;251;48.704;9.210;2023-04-07T15:40:41;10.60;27.70
530;DHT22;251;48.704;9.210;2023-04-07T15:43:07;10.50;26.50
530;DHT22;251;48.704;9.210;2023-04-07T15:45:39;10.50;25.80
530;DHT22;251;48.704;9.210;2023-04-07T15:48:06;10.40;26.00
530;DHT22;251;48.704;9.210;2023-04-07T15:50:34;10.70;27.10
530;DHT22;251;48.704;9.210;2023-04-07T15:53:01;10.60;25.90
530;DHT22;251;48.704;9.210;2023-04-07T15:55:29;10.70;26.70
530;DHT22;251;48.704;9.210;2023-04-07T15:57:56;10.50;25.90
530;DHT22;251;48.704;9.210;2023-04-07T16:00:23;10.50;24.90
530;DHT22;251;48.704;9.210;2023-04-07T16:02:50;10.60;24.70
530;DHT22;251;48.704;9.210;2023-04-07T16:05:17;10.50;25.10
530;DHT22;251;48.704;9.210;2023-04-07T16:07:45;10.50;24.70
530;DHT22;251;48.704;9.210;2023-04-07T16:10:12;10.50;23.40
530;DHT22;251;48.704;9.210;2023-04-07T16:12:39;10.60;23.60
530;DHT22;251;48.704;9.210;2023-04-07T16:15:06;10.60;23.10
530;DHT22;251;48.704;9.210;2023-04-07T16:17:35;10.60;23.70
530;DHT22;251;48.704;9.210;2023-04-07T16:20:06;10.70;22.20
530;DHT22;251;48.704;9.210;2023-04-07T16:22:38;10.40;22.80
530;DHT22;251;48.704;9.210;2023-04-07T16:25:07;10.80;24.30
530;DHT22;251;48.704;9.210;2023-04-07T16:27:35;10.50;23.80
530;DHT22;251;48.704;9.210;2023-04-07T16:30:02;10.60;23.30
530;DHT22;251;48.704;9.210;2023-04-07T16:32:30;10.50;22.90
530;DHT22;251;48.704;9.210;2023-04-07T16:34:57;10.70;22.50
530;DHT22;251;48.704;9.210;2023-04-07T16:37:24;10.60;23.20
530;DHT22;251;48.704;9.210;2023-04-07T16:39:53;10.40;24.10
530;DHT22;251;48.704;9.210;2023-04-07T16:42:23;10.70;24.40
530;DHT22;251;48.704;9.210;2023-04-07T16:44:50;10.50;24.40
530;DHT22;251;48.704;9.210;2023-04-07T16:47:17;10.80;24.20
530;DHT22;251;48.704;9.210;2023-04-07T16:49:44;10.70;24.50
530;DHT22;251;48.704;9.210;2023-04-07T16:52:10;10.50;24.00
530;DHT22;251;48.704;9.210;2023-04-07T16:54:37;10.60;24.00
530;DHT22;251;48.704;9.210;2023-04-07T16:57:04;10.60;23.80
530;DHT22;251;48.704;9.210;2023-04-07T16:59:32;10.50;24.60